createdAt,value
2022-09-17T00:00:04.080Z,100.00
2022-09-17T00:01:17.295Z,100.00
2022-09-17T00:02:19.308Z,100.00
2022-09-17T00:03:23.176Z,100.00
2022-09-17T00:04:25.242Z,100.00
2022-09-17T00:05:28.242Z,100.00
2022-09-17T00:06:31.257Z,100.00
2022-09-17T00:07:35.640Z,100.00
2022-09-17T00:08:39.788Z,100.00
2022-09-17T00:09:43.300Z,100.00
2022-09-17T00:10:45.985Z,100.00
2022-09-17T00:11:48.988Z,100.00
2022-09-17T00:12:51.543Z,100.00
2022-09-17T00:13:55.709Z,100.00
2022-09-17T00:14:57.911Z,100.00
2022-09-17T00:16:01.052Z,100.00
2022-09-17T00:17:04.179Z,100.00
2022-09-17T00:18:06.210Z,100.00
2022-09-17T00:19:14.546Z,100.00
2022-09-17T00:20:16.879Z,100.00
2022-09-17T00:21:21.057Z,100.00
2022-09-17T00:22:23.473Z,100.00
2022-09-17T00:23:27.940Z,100.00
2022-09-17T00:24:30.170Z,100.00
2022-09-17T00:25:33.166Z,100.00
2022-09-17T00:26:36.997Z,100.00
2022-09-17T00:27:39.981Z,100.00
2022-09-17T00:28:45.448Z,100.00
2022-09-17T00:29:49.600Z,100.00
2022-09-17T00:30:51.720Z,100.00
2022-09-17T00:31:54.761Z,100.00
2022-09-17T00:32:57.867Z,100.00
2022-09-17T00:34:01.979Z,100.00
2022-09-17T00:35:04.707Z,100.00
2022-09-17T00:36:08.416Z,100.00
2022-09-17T00:37:10.445Z,100.00
2022-09-17T00:38:13.485Z,100.00
2022-09-17T00:39:18.350Z,100.00
2022-09-17T00:40:20.976Z,100.00
2022-09-17T00:41:26.163Z,100.00
2022-09-17T00:42:28.258Z,100.00
2022-09-17T00:43:37.679Z,100.00
2022-09-17T00:44:46.102Z,100.00
2022-09-17T00:45:49.405Z,100.00
2022-09-17T00:46:51.600Z,100.00
2022-09-17T00:47:59.940Z,100.00
2022-09-17T00:49:06.061Z,100.00
2022-09-17T00:50:11.834Z,100.00
2022-09-17T00:51:16.192Z,100.00
2022-09-17T00:52:23.591Z,100.00
2022-09-17T00:53:25.976Z,100.00
2022-09-17T00:54:30.976Z,100.00
2022-09-17T00:55:37.911Z,100.00
2022-09-17T00:56:43.591Z,100.00
2022-09-17T00:57:47.589Z,100.00
2022-09-17T00:58:50.754Z,100.00
2022-09-17T00:59:53.955Z,100.00
2022-09-17T01:00:56.082Z,100.00
2022-09-17T01:01:59.714Z,100.00
2022-09-17T01:03:01.816Z,100.00
2022-09-17T01:04:05.130Z,100.00
2022-09-17T01:05:08.369Z,100.00
2022-09-17T01:06:17.805Z,100.00
2022-09-17T01:07:35.857Z,100.00
2022-09-17T01:08:48.968Z,100.00
2022-09-17T01:09:58.849Z,100.00
2022-09-17T01:11:21.059Z,100.00
2022-09-17T01:12:41.678Z,100.00
2022-09-17T01:13:57.728Z,100.00
2022-09-17T01:15:10.766Z,100.00
2022-09-17T01:16:20.938Z,100.00
2022-09-17T01:17:33.200Z,100.00
2022-09-17T01:18:48.935Z,100.00
2022-09-17T01:20:33.834Z,100.00
2022-09-17T01:21:50.072Z,100.00
2022-09-17T01:23:06.257Z,100.00
2022-09-17T01:24:34.577Z,100.00
2022-09-17T01:25:50.921Z,100.00
2022-09-17T01:27:22.377Z,100.00
2022-09-17T01:28:38.505Z,100.00
2022-09-17T01:30:04.316Z,100.00
2022-09-17T01:31:30.609Z,100.00
2022-09-17T01:32:40.066Z,100.00
2022-09-17T01:33:48.012Z,100.00
2022-09-17T01:34:59.848Z,100.00
2022-09-17T01:36:14.095Z,100.00
2022-09-17T01:37:26.781Z,100.00
2022-09-17T01:38:40.995Z,100.00
2022-09-17T01:39:49.965Z,100.00
2022-09-17T01:40:59.733Z,100.00
2022-09-17T01:42:14.361Z,100.00
2022-09-17T01:43:25.169Z,100.00
2022-09-17T01:44:29.733Z,100.00
2022-09-17T01:45:39.792Z,100.00
2022-09-17T01:46:46.434Z,100.00
2022-09-17T01:47:53.025Z,100.00
2022-09-17T01:48:59.753Z,100.00
2022-09-17T01:50:06.252Z,100.00
2022-09-17T01:51:11.753Z,100.00
2022-09-17T01:52:16.864Z,100.00
2022-09-17T01:53:23.895Z,100.00
2022-09-17T01:54:31.689Z,100.00
2022-09-17T01:55:37.518Z,100.00
2022-09-17T01:56:45.297Z,100.00
2022-09-17T01:57:53.554Z,100.00
2022-09-17T01:59:02.970Z,100.00
2022-09-17T02:00:08.891Z,100.00
2022-09-17T02:01:19.835Z,100.00
2022-09-17T02:02:30.318Z,100.00
2022-09-17T02:03:38.318Z,100.00
2022-09-17T02:04:45.257Z,100.00
2022-09-17T02:05:53.890Z,100.00
2022-09-17T02:07:00.412Z,100.00
2022-09-17T02:08:07.860Z,100.00
2022-09-17T02:09:16.412Z,100.00
2022-09-17T02:10:23.371Z,100.00
2022-09-17T02:11:26.254Z,100.00
2022-09-17T02:12:34.762Z,100.00
2022-09-17T02:13:44.070Z,100.00
2022-09-17T02:14:51.624Z,100.00
2022-09-17T02:16:00.223Z,100.00
2022-09-17T02:17:11.922Z,100.00
2022-09-17T02:18:23.254Z,100.00
2022-09-17T02:19:29.207Z,100.00
2022-09-17T02:20:38.616Z,100.00
2022-09-17T02:21:48.068Z,100.00
2022-09-17T02:22:56.773Z,100.00
2022-09-17T02:24:14.541Z,100.00
2022-09-17T02:25:24.466Z,100.00
2022-09-17T02:26:29.034Z,100.00
2022-09-17T02:27:41.896Z,100.00
2022-09-17T02:28:51.993Z,100.00
2022-09-17T02:29:54.156Z,100.00
2022-09-17T02:30:57.406Z,100.00
2022-09-17T02:32:00.049Z,100.00
2022-09-17T02:33:06.991Z,100.00
2022-09-17T02:34:11.339Z,100.00
2022-09-17T02:35:15.287Z,100.00
2022-09-17T02:36:18.616Z,100.00
2022-09-17T02:37:22.049Z,100.00
2022-09-17T02:38:26.351Z,100.00
2022-09-17T02:39:29.655Z,100.00
2022-09-17T02:40:40.772Z,100.00
2022-09-17T02:41:52.187Z,100.00
2022-09-17T02:43:11.206Z,100.00
2022-09-17T02:44:24.954Z,100.00
2022-09-17T02:45:39.813Z,100.00
2022-09-17T02:46:58.251Z,100.00
2022-09-17T02:48:25.576Z,100.00
2022-09-17T02:49:51.296Z,100.00
2022-09-17T02:51:13.632Z,100.00
2022-09-17T02:52:22.454Z,100.00
2022-09-17T02:53:36.386Z,100.00
2022-09-17T02:54:43.910Z,100.00
2022-09-17T02:55:57.220Z,100.00
2022-09-17T02:57:11.064Z,100.00
2022-09-17T02:58:25.885Z,100.00
2022-09-17T02:59:37.966Z,100.00
2022-09-17T03:00:41.613Z,100.00
2022-09-17T03:01:47.026Z,100.00
2022-09-17T03:02:52.557Z,100.00
2022-09-17T03:03:56.725Z,100.00
2022-09-17T03:05:02.594Z,100.00
2022-09-17T03:06:05.556Z,100.00
2022-09-17T03:07:09.999Z,100.00
2022-09-17T03:08:14.479Z,100.00
2022-09-17T03:09:17.501Z,100.00
2022-09-17T03:10:20.013Z,100.00
2022-09-17T03:11:23.117Z,100.00
2022-09-17T03:12:25.750Z,100.00
2022-09-17T03:13:28.814Z,100.00
2022-09-17T03:14:30.839Z,100.00
2022-09-17T03:15:34.181Z,100.00
2022-09-17T03:16:36.276Z,100.00
2022-09-17T03:17:39.340Z,100.00
2022-09-17T03:18:41.342Z,100.00
2022-09-17T03:19:44.343Z,100.00
2022-09-17T03:20:47.820Z,100.00
2022-09-17T03:21:50.859Z,100.00
2022-09-17T03:22:52.923Z,100.00
2022-09-17T03:23:56.006Z,100.00
2022-09-17T03:24:58.088Z,100.00
2022-09-17T03:26:01.401Z,100.00
2022-09-17T03:27:03.564Z,100.00
2022-09-17T03:28:06.568Z,100.00
2022-09-17T03:29:08.621Z,100.00
2022-09-17T03:30:11.930Z,100.00
2022-09-17T03:31:14.054Z,100.00
2022-09-17T03:32:17.413Z,100.00
2022-09-17T03:33:20.024Z,100.00
2022-09-17T03:34:23.894Z,100.00
2022-09-17T03:35:26.002Z,100.00
2022-09-17T03:36:30.741Z,100.00
2022-09-17T03:37:33.296Z,100.00
2022-09-17T03:38:38.590Z,100.00
2022-09-17T03:39:40.629Z,100.00
2022-09-17T03:40:43.752Z,100.00
2022-09-17T03:41:45.788Z,100.00
2022-09-17T03:42:48.797Z,100.00
2022-09-17T03:43:50.895Z,100.00
2022-09-17T03:44:53.891Z,100.00
2022-09-17T03:45:55.988Z,100.00
2022-09-17T03:46:59.235Z,100.00
2022-09-17T03:48:01.664Z,100.00
2022-09-17T03:49:04.843Z,100.00
2022-09-17T03:50:07.687Z,100.00
2022-09-17T03:51:10.728Z,100.00
2022-09-17T03:52:14.523Z,100.00
2022-09-17T03:53:17.725Z,100.00
2022-09-17T03:54:20.768Z,100.00
2022-09-17T03:55:22.776Z,100.00
2022-09-17T03:56:26.728Z,100.00
2022-09-17T03:57:29.053Z,100.00
2022-09-17T03:58:32.561Z,100.00
2022-09-17T03:59:34.591Z,100.00
2022-09-17T04:00:37.883Z,100.00
2022-09-17T04:01:40.089Z,100.00
2022-09-17T04:02:43.786Z,100.00
2022-09-17T04:03:45.990Z,100.00
2022-09-17T04:04:49.003Z,100.00
2022-09-17T04:05:51.391Z,100.00
2022-09-17T04:06:54.581Z,100.00
2022-09-17T04:07:58.006Z,100.00
2022-09-17T04:09:01.296Z,100.00
2022-09-17T04:10:04.991Z,100.00
2022-09-17T04:11:08.645Z,100.00
2022-09-17T04:12:10.762Z,100.00
2022-09-17T04:13:14.341Z,100.00
2022-09-17T04:14:16.390Z,100.00
2022-09-17T04:15:19.459Z,100.00
2022-09-17T04:16:21.521Z,100.00
2022-09-17T04:17:24.621Z,100.00
2022-09-17T04:18:26.818Z,100.00
2022-09-17T04:19:29.937Z,100.00
2022-09-17T04:20:31.958Z,100.00
2022-09-17T04:21:35.041Z,100.00
2022-09-17T04:22:37.071Z,100.00
2022-09-17T04:23:41.482Z,100.00
2022-09-17T04:24:43.516Z,100.00
2022-09-17T04:25:46.739Z,100.00
2022-09-17T04:26:48.814Z,100.00
2022-09-17T04:27:51.859Z,100.00
2022-09-17T04:28:53.886Z,100.00
2022-09-17T04:29:56.891Z,100.00
2022-09-17T04:30:59.040Z,100.00
2022-09-17T04:32:02.450Z,100.00
2022-09-17T04:33:04.812Z,100.00
2022-09-17T04:34:07.933Z,100.00
2022-09-17T04:35:09.988Z,100.00
2022-09-17T04:36:13.003Z,100.00
2022-09-17T04:37:15.012Z,100.00
2022-09-17T04:38:20.562Z,100.00
2022-09-17T04:39:23.949Z,100.00
2022-09-17T04:40:28.102Z,100.00
2022-09-17T04:41:30.126Z,100.00
2022-09-17T04:42:33.153Z,100.00
2022-09-17T04:43:35.468Z,100.00
2022-09-17T04:44:38.549Z,100.00
2022-09-17T04:45:40.957Z,100.00
2022-09-17T04:46:44.088Z,100.00
2022-09-17T04:47:46.158Z,100.00
2022-09-17T04:48:49.146Z,100.00
2022-09-17T04:49:51.575Z,100.00
2022-09-17T04:50:54.653Z,100.00
2022-09-17T04:51:56.731Z,100.00
2022-09-17T04:52:59.820Z,100.00
2022-09-17T04:54:01.976Z,100.00
2022-09-17T04:55:07.517Z,100.00
2022-09-17T04:56:09.588Z,100.00
2022-09-17T04:57:12.640Z,100.00
2022-09-17T04:58:14.653Z,100.00
2022-09-17T04:59:17.669Z,100.00
2022-09-17T05:00:21.511Z,100.00
2022-09-17T05:01:24.535Z,100.00
2022-09-17T05:02:26.704Z,100.00
2022-09-17T05:03:29.755Z,100.00
2022-09-17T05:04:31.779Z,100.00
2022-09-17T05:05:34.917Z,100.00
2022-09-17T05:06:36.997Z,100.00
2022-09-17T05:07:40.526Z,100.00
2022-09-17T05:08:42.526Z,100.00
2022-09-17T05:09:45.535Z,100.00
2022-09-17T05:10:50.320Z,100.00
2022-09-17T05:11:53.420Z,100.00
2022-09-17T05:12:56.562Z,100.00
2022-09-17T05:13:59.642Z,100.00
2022-09-17T05:15:01.814Z,100.00
2022-09-17T05:16:04.960Z,100.00
2022-09-17T05:17:07.038Z,100.00
2022-09-17T05:18:10.090Z,100.00
2022-09-17T05:19:12.082Z,100.00
2022-09-17T05:20:16.441Z,100.00
2022-09-17T05:21:18.446Z,100.00
2022-09-17T05:22:21.817Z,100.00
2022-09-17T05:23:23.995Z,100.00
2022-09-17T05:24:27.340Z,100.00
2022-09-17T05:25:29.340Z,100.00
2022-09-17T05:26:33.739Z,100.00
2022-09-17T05:27:36.047Z,100.00
2022-09-17T05:28:39.096Z,100.00
2022-09-17T05:29:41.127Z,100.00
2022-09-17T05:30:44.198Z,100.00
2022-09-17T05:31:46.345Z,100.00
2022-09-17T05:32:49.814Z,100.00
2022-09-17T05:33:51.818Z,100.00
2022-09-17T05:34:55.107Z,100.00
2022-09-17T05:35:58.148Z,100.00
2022-09-17T05:37:00.158Z,100.00
2022-09-17T05:38:04.643Z,100.00
2022-09-17T05:39:06.801Z,100.00
2022-09-17T05:40:10.724Z,100.00
2022-09-17T05:41:13.863Z,100.00
2022-09-17T05:42:17.239Z,100.00
2022-09-17T05:43:20.304Z,100.00
2022-09-17T05:44:23.649Z,100.00
2022-09-17T05:45:26.984Z,100.00
2022-09-17T05:46:29.072Z,100.00
2022-09-17T05:47:32.210Z,100.00
2022-09-17T05:48:34.607Z,100.00
2022-09-17T05:49:37.735Z,100.00
2022-09-17T05:50:40.149Z,100.00
2022-09-17T05:51:43.600Z,100.00
2022-09-17T05:52:45.612Z,100.00
2022-09-17T05:53:48.669Z,100.00
2022-09-17T05:54:50.715Z,100.00
2022-09-17T05:55:57.682Z,100.00
2022-09-17T05:56:59.736Z,100.00
2022-09-17T05:58:11.137Z,100.00
2022-09-17T05:59:13.205Z,100.00
2022-09-17T06:00:16.733Z,100.00
2022-09-17T06:01:18.808Z,100.00
2022-09-17T06:02:21.903Z,100.00
2022-09-17T06:03:24.027Z,100.00
2022-09-17T06:04:29.580Z,100.00
2022-09-17T06:05:33.614Z,100.00
2022-09-17T06:06:37.846Z,100.00
2022-09-17T06:07:40.127Z,100.00
2022-09-17T06:08:43.168Z,100.00
2022-09-17T06:09:45.257Z,100.00
2022-09-17T06:10:48.300Z,100.00
2022-09-17T06:11:50.670Z,100.00
2022-09-17T06:12:57.631Z,100.00
2022-09-17T06:14:01.075Z,100.00
2022-09-17T06:15:04.788Z,100.00
2022-09-17T06:16:06.956Z,100.00
2022-09-17T06:17:10.102Z,100.00
2022-09-17T06:18:12.189Z,100.00
2022-09-17T06:19:15.269Z,100.00
2022-09-17T06:20:17.392Z,100.00
2022-09-17T06:21:22.946Z,100.00
2022-09-17T06:22:25.217Z,100.00
2022-09-17T06:23:29.371Z,100.00
2022-09-17T06:24:31.605Z,100.00
2022-09-17T06:25:35.329Z,100.00
2022-09-17T06:26:37.464Z,100.00
2022-09-17T06:27:40.776Z,100.00
2022-09-17T06:28:43.043Z,100.00
2022-09-17T06:29:47.716Z,100.00
2022-09-17T06:30:52.722Z,100.00
2022-09-17T06:31:55.934Z,100.00
2022-09-17T06:33:00.502Z,100.00
2022-09-17T06:34:05.592Z,100.00
2022-09-17T06:35:08.906Z,100.00
2022-09-17T06:36:14.435Z,100.00
2022-09-17T06:37:17.340Z,100.00
2022-09-17T06:38:20.535Z,100.00
2022-09-17T06:39:22.845Z,100.00
2022-09-17T06:40:26.226Z,100.00
2022-09-17T06:41:28.518Z,100.00
2022-09-17T06:42:31.752Z,100.00
2022-09-17T06:43:34.008Z,100.00
2022-09-17T06:44:37.133Z,100.00
2022-09-17T06:45:40.529Z,100.00
2022-09-17T06:46:44.251Z,100.00
2022-09-17T06:47:46.509Z,100.00
2022-09-17T06:48:49.558Z,100.00
2022-09-17T06:49:51.783Z,100.00
2022-09-17T06:50:55.388Z,100.00
2022-09-17T06:51:57.444Z,100.00
2022-09-17T06:53:00.596Z,100.00
2022-09-17T06:54:02.674Z,100.00
2022-09-17T06:55:06.512Z,100.00
2022-09-17T06:56:09.884Z,100.00
2022-09-17T06:57:14.448Z,100.00
2022-09-17T06:58:16.927Z,100.00
2022-09-17T06:59:20.053Z,100.00
2022-09-17T07:00:22.266Z,100.00
2022-09-17T07:01:26.858Z,100.00
2022-09-17T07:02:29.050Z,100.00
2022-09-17T07:03:33.029Z,100.00
2022-09-17T07:04:36.105Z,100.00
2022-09-17T07:05:38.162Z,100.00
2022-09-17T07:06:41.286Z,100.00
2022-09-17T07:07:43.402Z,100.00
2022-09-17T07:08:47.112Z,100.00
2022-09-17T07:09:49.674Z,100.00
2022-09-17T07:10:52.787Z,100.00
2022-09-17T07:11:54.855Z,100.00
2022-09-17T07:12:57.901Z,100.00
2022-09-17T07:13:59.943Z,100.00
2022-09-17T07:15:03.001Z,100.00
2022-09-17T07:16:06.526Z,100.00
2022-09-17T07:17:11.115Z,100.00
2022-09-17T07:18:13.161Z,100.00
2022-09-17T07:19:16.201Z,100.00
2022-09-17T07:20:18.475Z,100.00
2022-09-17T07:21:21.514Z,100.00
2022-09-17T07:22:24.785Z,100.00
2022-09-17T07:23:29.668Z,100.00
2022-09-17T07:24:33.054Z,100.00
2022-09-17T07:25:36.236Z,99.97
2022-09-17T07:26:39.318Z,99.81
2022-09-17T07:27:41.346Z,99.91
2022-09-17T07:28:45.131Z,99.58
2022-09-17T07:29:47.211Z,99.64
2022-09-17T07:30:50.783Z,98.94
2022-09-17T07:31:53.974Z,99.17
2022-09-17T07:33:01.342Z,99.12
2022-09-17T07:34:04.475Z,98.91
2022-09-17T07:35:07.064Z,99.21
2022-09-17T07:36:12.496Z,98.90
2022-09-17T07:37:14.574Z,98.92
2022-09-17T07:38:17.638Z,99.05
2022-09-17T07:39:20.687Z,98.81
2022-09-17T07:40:22.903Z,98.30
2022-09-17T07:41:26.022Z,98.39
2022-09-17T07:42:28.182Z,98.77
2022-09-17T07:43:33.256Z,98.45
2022-09-17T07:44:35.372Z,98.23
2022-09-17T07:45:38.461Z,98.15
2022-09-17T07:46:40.639Z,98.30
2022-09-17T07:47:44.421Z,97.89
2022-09-17T07:48:48.762Z,98.45
2022-09-17T07:49:51.876Z,98.83
2022-09-17T07:50:53.995Z,99.00
2022-09-17T07:51:57.008Z,98.60
2022-09-17T07:52:59.041Z,98.56
2022-09-17T07:54:02.383Z,98.90
2022-09-17T07:55:05.074Z,98.81
2022-09-17T07:56:11.789Z,98.72
2022-09-17T07:57:14.132Z,98.98
2022-09-17T07:58:17.256Z,99.01
2022-09-17T07:59:21.245Z,98.96
2022-09-17T08:00:23.255Z,98.89
2022-09-17T08:01:27.306Z,99.11
2022-09-17T08:02:29.467Z,98.79
2022-09-17T08:03:32.667Z,98.46
2022-09-17T08:04:36.077Z,98.41
2022-09-17T08:05:39.116Z,98.24
2022-09-17T08:06:41.176Z,98.12
2022-09-17T08:07:44.202Z,97.56
2022-09-17T08:08:46.611Z,97.38
2022-09-17T08:09:49.991Z,97.75
2022-09-17T08:10:52.019Z,94.99
2022-09-17T08:11:56.426Z,96.19
2022-09-17T08:12:59.025Z,96.13
2022-09-17T08:14:02.087Z,95.99
2022-09-17T08:15:04.466Z,95.38
2022-09-17T08:16:09.690Z,95.53
2022-09-17T08:17:11.867Z,95.67
2022-09-17T08:18:17.481Z,95.68
2022-09-17T08:19:20.030Z,95.34
2022-09-17T08:20:26.219Z,95.36
2022-09-17T08:21:28.277Z,94.78
2022-09-17T08:22:31.725Z,94.58
2022-09-17T08:23:35.789Z,94.91
2022-09-17T08:24:38.852Z,94.60
2022-09-17T08:25:40.942Z,94.63
2022-09-17T08:26:43.966Z,94.66
2022-09-17T08:27:47.050Z,94.54
2022-09-17T08:28:50.938Z,94.64
2022-09-17T08:29:54.084Z,94.35
2022-09-17T08:31:00.896Z,94.74
2022-09-17T08:32:04.440Z,94.71
2022-09-17T08:33:06.617Z,94.89
2022-09-17T08:34:10.714Z,95.28
2022-09-17T08:35:12.851Z,95.31
2022-09-17T08:36:19.239Z,95.13
2022-09-17T08:37:21.774Z,95.22
2022-09-17T08:38:25.006Z,94.97
2022-09-17T08:39:27.046Z,94.55
2022-09-17T08:40:31.404Z,94.37
2022-09-17T08:41:48.269Z,94.16
2022-09-17T08:42:56.438Z,93.68
2022-09-17T08:44:10.162Z,92.67
2022-09-17T08:45:14.377Z,92.29
2022-09-17T08:46:17.695Z,92.78
2022-09-17T08:47:27.401Z,92.04
2022-09-17T08:48:37.517Z,91.46
2022-09-17T08:49:47.337Z,91.29
2022-09-17T08:50:50.978Z,90.81
2022-09-17T08:52:10.042Z,89.54
2022-09-17T08:53:42.849Z,85.46
2022-09-17T08:54:51.073Z,85.96
2022-09-17T08:56:00.123Z,86.06
2022-09-17T08:57:17.594Z,86.02
2022-09-17T08:58:49.776Z,84.70
2022-09-17T09:00:00.638Z,84.98
2022-09-17T09:01:12.293Z,84.85
2022-09-17T09:02:27.503Z,83.40
2022-09-17T09:03:42.587Z,84.22
2022-09-17T09:05:13.320Z,82.97
2022-09-17T09:06:16.756Z,83.13
2022-09-17T09:07:27.207Z,82.40
2022-09-17T09:08:36.872Z,80.75
2022-09-17T09:09:46.539Z,80.37
2022-09-17T09:10:55.403Z,80.92
2022-09-17T09:12:04.363Z,81.12
2022-09-17T09:13:07.520Z,80.22
2022-09-17T09:14:18.538Z,80.64
2022-09-17T09:15:36.029Z,80.02
2022-09-17T09:16:41.497Z,79.58
2022-09-17T09:17:46.935Z,80.44
2022-09-17T09:18:53.040Z,80.48
2022-09-17T09:19:56.449Z,80.67
2022-09-17T09:21:09.883Z,80.55
2022-09-17T09:22:31.994Z,80.79
2022-09-17T09:23:47.651Z,80.63
2022-09-17T09:25:00.082Z,81.26
2022-09-17T09:26:17.196Z,81.13
2022-09-17T09:27:27.437Z,80.40
2022-09-17T09:28:47.913Z,79.90
2022-09-17T09:30:02.199Z,79.30
2022-09-17T09:31:20.258Z,77.66
2022-09-17T09:32:36.841Z,77.75
2022-09-17T09:33:47.721Z,79.52
2022-09-17T09:34:52.444Z,79.13
2022-09-17T09:35:54.585Z,79.10
2022-09-17T09:37:07.376Z,78.84
2022-09-17T09:38:23.709Z,79.11
2022-09-17T09:39:41.204Z,79.39
2022-09-17T09:40:50.116Z,79.30
2022-09-17T09:41:56.145Z,79.35
2022-09-17T09:43:03.033Z,78.63
2022-09-17T09:44:09.835Z,78.46
2022-09-17T09:45:16.246Z,78.12
2022-09-17T09:46:33.932Z,77.97
2022-09-17T09:47:52.571Z,77.43
2022-09-17T09:49:07.137Z,77.85
2022-09-17T09:50:25.294Z,78.42
2022-09-17T09:51:35.122Z,78.53
2022-09-17T09:52:53.658Z,78.69
2022-09-17T09:54:14.651Z,78.89
2022-09-17T09:55:53.065Z,79.12
2022-09-17T09:56:57.343Z,79.09
2022-09-17T09:58:06.774Z,79.87
2022-09-17T09:59:08.866Z,79.56
2022-09-17T10:00:30.525Z,79.49
2022-09-17T10:01:38.100Z,79.92
2022-09-17T10:02:42.321Z,79.35
2022-09-17T10:03:46.246Z,79.42
2022-09-17T10:04:53.422Z,78.20
2022-09-17T10:05:58.491Z,78.33
2022-09-17T10:07:06.495Z,78.86
2022-09-17T10:08:16.224Z,78.61
2022-09-17T10:09:22.616Z,79.68
2022-09-17T10:10:24.825Z,79.43
2022-09-17T10:11:30.034Z,79.52
2022-09-17T10:12:32.140Z,78.94
2022-09-17T10:13:36.773Z,79.11
2022-09-17T10:14:39.978Z,79.22
2022-09-17T10:15:43.088Z,78.67
2022-09-17T10:16:45.433Z,79.44
2022-09-17T10:17:48.510Z,79.49
2022-09-17T10:19:10.854Z,79.30
2022-09-17T10:20:22.730Z,79.33
2022-09-17T10:21:35.920Z,79.92
2022-09-17T10:22:39.627Z,80.19
2022-09-17T10:23:45.262Z,80.29
2022-09-17T10:24:49.525Z,80.29
2022-09-17T10:25:55.573Z,80.91
2022-09-17T10:27:03.017Z,81.41
2022-09-17T10:28:24.996Z,81.71
2022-09-17T10:29:28.444Z,81.93
2022-09-17T10:30:31.168Z,82.26
2022-09-17T10:31:48.698Z,82.52
2022-09-17T10:33:16.354Z,82.16
2022-09-17T10:34:26.544Z,82.60
2022-09-17T10:35:29.378Z,82.25
2022-09-17T10:36:41.313Z,82.32
2022-09-17T10:37:46.022Z,82.45
2022-09-17T10:38:49.558Z,82.14
2022-09-17T10:39:53.713Z,82.59
2022-09-17T10:41:10.330Z,81.60
2022-09-17T10:42:15.616Z,82.39
2022-09-17T10:43:22.618Z,82.32
2022-09-17T10:44:30.318Z,81.78
2022-09-17T10:45:32.694Z,81.81
2022-09-17T10:46:36.350Z,82.13
2022-09-17T10:47:41.767Z,82.00
2022-09-17T10:48:47.828Z,82.20
2022-09-17T10:49:56.573Z,82.19
2022-09-17T10:50:59.610Z,82.16
2022-09-17T10:52:15.150Z,82.29
2022-09-17T10:53:18.550Z,82.55
2022-09-17T10:54:42.025Z,82.98
2022-09-17T10:55:50.353Z,83.11
2022-09-17T10:56:58.760Z,83.39
2022-09-17T10:58:09.462Z,83.74
2022-09-17T10:59:47.625Z,83.57
2022-09-17T11:01:03.631Z,83.94
2022-09-17T11:02:37.123Z,84.01
2022-09-17T11:04:04.812Z,84.08
2022-09-17T11:05:24.182Z,83.58
2022-09-17T11:06:43.371Z,83.68
2022-09-17T11:07:54.391Z,83.66
2022-09-17T11:09:10.917Z,83.34
2022-09-17T11:10:21.459Z,83.17
2022-09-17T11:11:40.284Z,82.74
2022-09-17T11:13:02.237Z,82.51
2022-09-17T11:14:15.963Z,82.84
2022-09-17T11:15:44.085Z,82.50
2022-09-17T11:16:57.344Z,82.52
2022-09-17T11:18:19.347Z,82.37
2022-09-17T11:19:32.585Z,81.86
2022-09-17T11:20:53.296Z,81.14
2022-09-17T11:22:07.259Z,80.11
2022-09-17T11:23:28.312Z,78.56
2022-09-17T11:25:12.814Z,78.63
2022-09-17T11:26:31.709Z,78.75
2022-09-17T11:28:07.759Z,78.11
2022-09-17T11:29:31.487Z,78.34
2022-09-17T11:30:50.630Z,78.72
2022-09-17T11:32:04.834Z,79.00
2022-09-17T11:33:29.839Z,78.84
2022-09-17T11:34:36.100Z,78.94
2022-09-17T11:35:47.063Z,79.37
2022-09-17T11:36:57.392Z,80.07
2022-09-17T11:38:06.196Z,80.13
2022-09-17T11:39:14.210Z,80.20
2022-09-17T11:40:23.729Z,80.59
2022-09-17T11:41:31.412Z,80.64
2022-09-17T11:42:41.023Z,80.55
2022-09-17T11:43:47.481Z,80.85
2022-09-17T11:44:55.606Z,80.97
2022-09-17T11:46:06.497Z,80.67
2022-09-17T11:47:15.226Z,80.71
2022-09-17T11:48:21.778Z,80.44
2022-09-17T11:49:30.495Z,80.20
2022-09-17T11:50:38.065Z,80.15
2022-09-17T11:51:44.252Z,80.71
2022-09-17T11:52:58.648Z,80.67
2022-09-17T11:54:06.811Z,80.58
2022-09-17T11:55:29.158Z,81.00
2022-09-17T11:56:40.248Z,81.34
2022-09-17T11:57:45.148Z,81.14
2022-09-17T11:58:53.021Z,81.69
2022-09-17T11:59:59.894Z,81.78
2022-09-17T12:01:08.154Z,81.71
2022-09-17T12:02:18.398Z,81.66
2022-09-17T12:03:30.429Z,81.98
2022-09-17T12:04:54.344Z,82.12
2022-09-17T12:06:08.396Z,82.51
2022-09-17T12:07:35.978Z,82.68
2022-09-17T12:08:46.279Z,83.05
2022-09-17T12:09:57.403Z,83.43
2022-09-17T12:11:10.517Z,84.04
2022-09-17T12:12:45.043Z,84.03
2022-09-17T12:13:46.123Z,83.71
2022-09-17T12:15:00.017Z,83.35
2022-09-17T12:16:11.810Z,82.49
2022-09-17T12:17:23.081Z,82.36
2022-09-17T12:18:39.230Z,81.49
2022-09-17T12:19:46.474Z,80.85
2022-09-17T12:20:53.902Z,81.05
2022-09-17T12:22:00.944Z,80.67
2022-09-17T12:23:11.273Z,80.85
2022-09-17T12:24:21.827Z,81.06
2022-09-17T12:25:26.913Z,80.78
2022-09-17T12:26:48.484Z,80.86
2022-09-17T12:28:06.001Z,81.02
2022-09-17T12:29:38.330Z,81.27
2022-09-17T12:30:53.325Z,81.33
2022-09-17T12:32:03.383Z,81.58
2022-09-17T12:33:21.669Z,81.70
2022-09-17T12:34:40.912Z,81.98
2022-09-17T12:36:10.486Z,82.71
2022-09-17T12:37:19.756Z,82.08
2022-09-17T12:38:43.285Z,82.32
2022-09-17T12:40:22.115Z,82.71
2022-09-17T12:41:31.759Z,82.28
2022-09-17T12:43:08.381Z,81.91
2022-09-17T12:44:30.500Z,82.02
2022-09-17T12:45:51.025Z,82.07
2022-09-17T12:47:11.525Z,81.90
2022-09-17T12:48:54.898Z,80.68
2022-09-17T12:50:11.491Z,81.23
2022-09-17T12:51:32.739Z,80.80
2022-09-17T12:52:49.758Z,80.48
2022-09-17T12:54:05.843Z,80.44
2022-09-17T12:55:31.273Z,80.35
2022-09-17T12:56:57.188Z,79.84
2022-09-17T12:58:16.107Z,78.97
2022-09-17T12:59:20.767Z,79.25
2022-09-17T13:00:24.116Z,79.12
2022-09-17T13:01:31.759Z,78.97
2022-09-17T13:02:39.814Z,79.42
2022-09-17T13:03:47.142Z,79.32
2022-09-17T13:05:06.646Z,79.60
2022-09-17T13:06:38.085Z,79.91
2022-09-17T13:07:59.589Z,80.64
2022-09-17T13:09:20.134Z,81.44
2022-09-17T13:10:52.471Z,82.91
2022-09-17T13:12:25.570Z,83.54
2022-09-17T13:13:49.267Z,85.38
2022-09-17T13:15:03.490Z,86.03
2022-09-17T13:16:17.071Z,87.34
2022-09-17T13:17:27.715Z,88.29
2022-09-17T13:18:41.407Z,88.83
2022-09-17T13:19:52.896Z,89.67
2022-09-17T13:21:03.186Z,90.32
2022-09-17T13:22:07.281Z,91.33
2022-09-17T13:23:12.815Z,91.85
2022-09-17T13:24:17.058Z,92.51
2022-09-17T13:25:22.642Z,92.97
2022-09-17T13:26:37.880Z,93.88
2022-09-17T13:27:43.164Z,94.14
2022-09-17T13:28:49.279Z,94.76
2022-09-17T13:30:02.286Z,95.30
2022-09-17T13:31:06.188Z,95.62
2022-09-17T13:32:09.626Z,95.95
2022-09-17T13:33:11.644Z,96.24
2022-09-17T13:34:31.546Z,96.21
2022-09-17T13:35:50.066Z,96.56
2022-09-17T13:36:53.939Z,96.57
2022-09-17T13:37:57.920Z,96.43
2022-09-17T13:39:02.133Z,96.72
2022-09-17T13:40:07.493Z,96.71
2022-09-17T13:41:21.816Z,97.23
2022-09-17T13:42:28.908Z,96.75
2022-09-17T13:43:32.212Z,97.10
2022-09-17T13:44:40.109Z,96.89
2022-09-17T13:46:17.818Z,97.31
2022-09-17T13:47:27.976Z,97.19
2022-09-17T13:48:32.493Z,97.28
2022-09-17T13:49:35.678Z,97.18
2022-09-17T13:50:39.466Z,97.05
2022-09-17T13:52:12.202Z,96.67
2022-09-17T13:53:21.960Z,96.63
2022-09-17T13:54:39.017Z,96.19
2022-09-17T13:55:43.902Z,96.36
2022-09-17T13:56:49.722Z,95.98
2022-09-17T13:57:52.978Z,95.72
2022-09-17T13:58:55.159Z,95.44
2022-09-17T14:00:02.037Z,94.90
2022-09-17T14:01:14.711Z,94.03
2022-09-17T14:02:36.597Z,93.20
2022-09-17T14:03:53.863Z,92.90
2022-09-17T14:04:58.018Z,92.84
2022-09-17T14:06:36.613Z,93.29
2022-09-17T14:07:51.128Z,93.43
2022-09-17T14:08:56.340Z,93.54
2022-09-17T14:10:00.866Z,93.53
2022-09-17T14:11:37.829Z,92.66
2022-09-17T14:12:59.801Z,92.46
2022-09-17T14:14:47.565Z,91.28
2022-09-17T14:16:02.209Z,91.36
2022-09-17T14:17:05.438Z,88.63
2022-09-17T14:18:58.891Z,88.54
2022-09-17T14:20:03.985Z,88.05